Terminal Aerodrome Forecast
Issued by NWS

Home | Current Version | Previous Version | Text Only | Print | Product List | Glossary On
Versions: 1 2 3 4 5 6 7 8 9 10 11 12 13
000
FTAK31 PAJN 201700
TAFAKT
TAF
PAKT 201726Z 2018/2118 33009KT P6SM SKC
     FM210200 35008KT P6SM SCT100
     FM210900 33006KT P6SM SKC
     FM211600 33011KT P6SM SKC
      AMD LTD TO CLD VIS AND WIND 2106/2115=

USA.gov is the U.S. government's official web portal to all federal, state and local government web resources and services.